createdAt,value
2019-05-11T00:02:00.490Z,98163.42
2019-05-11T00:04:29.480Z,98163.44
2019-05-11T00:06:58.407Z,98163.44
2019-05-11T00:09:27.367Z,98162.55
2019-05-11T00:11:56.351Z,98136.36
2019-05-11T00:14:26.630Z,98142.67
2019-05-11T00:16:55.247Z,98135.10
2019-05-11T00:19:24.046Z,98134.59
2019-05-11T00:21:52.968Z,98128.02
2019-05-11T00:24:22.638Z,98124.75
2019-05-11T00:26:51.561Z,98122.06
2019-05-11T00:29:20.493Z,98118.21
2019-05-11T00:31:49.176Z,98115.70
2019-05-11T00:34:17.885Z,98111.71
2019-05-11T00:36:46.585Z,98110.00
2019-05-11T00:39:15.271Z,98107.48
2019-05-11T00:41:44.269Z,98097.27
2019-05-11T00:44:13.091Z,98097.97
2019-05-11T00:46:41.854Z,98096.09
2019-05-11T00:49:10.981Z,98095.00
2019-05-11T00:51:39.665Z,98100.01
2019-05-11T00:54:08.354Z,98100.20
2019-05-11T00:56:37.036Z,98100.75
2019-05-11T00:59:20.692Z,98110.45
2019-05-11T01:01:36.223Z,98103.81
2019-05-11T01:04:05.057Z,98105.05
2019-05-11T01:06:33.738Z,98099.44
2019-05-11T01:09:02.595Z,98103.12
2019-05-11T01:11:31.523Z,98105.73
2019-05-11T01:14:00.219Z,98106.84
2019-05-11T01:16:28.921Z,98097.40
2019-05-11T01:18:57.614Z,98101.16
2019-05-11T01:21:26.365Z,98107.65
2019-05-11T01:23:55.831Z,98097.07
2019-05-11T01:26:24.606Z,98093.32
2019-05-11T01:28:53.547Z,98091.47
2019-05-11T01:31:22.259Z,98092.84
2019-05-11T01:33:52.549Z,98082.80
2019-05-11T01:36:21.230Z,98086.02
2019-05-11T01:38:50.182Z,98081.69
2019-05-11T01:41:18.874Z,98087.86
2019-05-11T01:43:47.596Z,98080.69
2019-05-11T01:46:16.531Z,98075.34
2019-05-11T01:48:45.577Z,98079.05
2019-05-11T01:51:14.514Z,98076.09
2019-05-11T01:53:43.707Z,98078.44
2019-05-11T01:56:12.420Z,98071.73
2019-05-11T01:58:41.099Z,98071.73
2019-05-11T02:01:10.281Z,98086.50
2019-05-11T02:03:39.803Z,98078.08
2019-05-11T02:06:08.736Z,98076.23
2019-05-11T02:08:37.447Z,98075.71
2019-05-11T02:11:15.567Z,98071.62
2019-05-11T02:13:36.802Z,98070.31
2019-05-11T02:16:05.811Z,98070.31
2019-05-11T02:18:34.835Z,98072.02
2019-05-11T02:21:04.018Z,98073.45
2019-05-11T02:23:32.946Z,98064.92
2019-05-11T02:26:01.997Z,98073.60
2019-05-11T02:28:30.952Z,98069.65
2019-05-11T02:30:59.896Z,98073.88
2019-05-11T02:33:28.629Z,98066.09
2019-05-11T02:35:57.574Z,98064.98
2019-05-11T02:38:26.260Z,98068.48
2019-05-11T02:40:55.244Z,98064.72
2019-05-11T02:43:24.398Z,98071.88
2019-05-11T02:45:53.421Z,98072.07
2019-05-11T02:48:22.430Z,98073.53
2019-05-11T02:50:52.210Z,98069.55
2019-05-11T02:53:21.939Z,98069.16
2019-05-11T02:55:51.796Z,98058.94
2019-05-11T02:58:20.543Z,98072.52
2019-05-11T03:00:49.418Z,98062.20
2019-05-11T03:03:18.369Z,98063.82
2019-05-11T03:05:47.306Z,98061.45
2019-05-11T03:08:16.227Z,98054.08
2019-05-11T03:10:45.178Z,98048.66
2019-05-11T03:13:16.814Z,98040.22
2019-05-11T03:15:45.981Z,98040.22
2019-05-11T03:18:14.919Z,98035.37
2019-05-11T03:20:43.601Z,98035.37
2019-05-11T03:23:12.747Z,98043.94
2019-05-11T03:25:41.712Z,98038.11
2019-05-11T03:28:10.639Z,98040.06
2019-05-11T03:30:39.589Z,98040.06
2019-05-11T03:33:08.343Z,98036.17
2019-05-11T03:35:37.056Z,98033.95
2019-05-11T03:38:05.827Z,98037.00
2019-05-11T03:40:34.717Z,98040.70
2019-05-11T03:43:03.430Z,98043.77
2019-05-11T03:45:33.672Z,98049.72
2019-05-11T03:48:02.601Z,98045.89
2019-05-11T03:50:31.310Z,98048.27
2019-05-11T03:53:00.253Z,98047.68
2019-05-11T03:55:28.951Z,98041.99
2019-05-11T03:57:57.613Z,98041.18
2019-05-11T04:00:26.477Z,98043.29
2019-05-11T04:02:55.448Z,98041.66
2019-05-11T04:05:24.629Z,98041.91
2019-05-11T04:07:53.317Z,98038.78
2019-05-11T04:10:25.104Z,98040.05
2019-05-11T04:12:54.650Z,98053.05
2019-05-11T04:15:23.391Z,98053.05
2019-05-11T04:17:52.308Z,98055.31
2019-05-11T04:20:20.997Z,98061.91
2019-05-11T04:22:49.932Z,98069.58
2019-05-11T04:25:18.620Z,98069.58
2019-05-11T04:27:47.566Z,98068.73
2019-05-11T04:30:16.874Z,98068.73
2019-05-11T04:32:45.810Z,98067.72
2019-05-11T04:35:16.943Z,98070.31
2019-05-11T04:37:46.186Z,98073.18
2019-05-11T04:40:15.250Z,98075.16
2019-05-11T04:42:55.065Z,98082.05
2019-05-11T04:45:14.785Z,98077.63
2019-05-11T04:47:43.470Z,98086.27
2019-05-11T04:50:12.833Z,98090.53
2019-05-11T04:52:41.575Z,98090.53
2019-05-11T04:55:10.617Z,98090.46
2019-05-11T04:57:39.554Z,98092.28
2019-05-11T05:00:08.938Z,98092.99
2019-05-11T05:02:37.867Z,98092.69
2019-05-11T05:05:06.867Z,98083.76
2019-05-11T05:07:35.541Z,98086.03
2019-05-11T05:10:04.338Z,98087.77
2019-05-11T05:12:33.277Z,98087.52
2019-05-11T05:15:02.442Z,98086.34
2019-05-11T05:17:31.140Z,98086.50
2019-05-11T05:20:00.372Z,98085.39
2019-05-11T05:22:29.035Z,98075.57
2019-05-11T05:24:57.713Z,98075.29
2019-05-11T05:27:26.431Z,98067.68
2019-05-11T05:29:55.085Z,98067.61
2019-05-11T05:32:24.269Z,98075.00
2019-05-11T05:34:53.453Z,98078.69
2019-05-11T05:37:22.623Z,98080.84
2019-05-11T05:39:51.571Z,98085.16
2019-05-11T05:42:20.518Z,98076.81
2019-05-11T05:44:49.748Z,98074.97
2019-05-11T05:47:18.713Z,98077.48
2019-05-11T05:49:47.607Z,98078.92
2019-05-11T05:52:16.779Z,98077.33
2019-05-11T05:54:45.955Z,98076.22
2019-05-11T05:57:14.655Z,98072.53
2019-05-11T05:59:43.847Z,98072.55
2019-05-11T06:02:15.601Z,98067.81
2019-05-11T06:04:44.807Z,98064.92
2019-05-11T06:07:13.490Z,98066.23
2019-05-11T06:09:42.184Z,98062.91
2019-05-11T06:12:11.156Z,98065.65
2019-05-11T06:14:39.927Z,98075.11
2019-05-11T06:17:08.587Z,98072.08
2019-05-11T06:19:38.057Z,98074.88
2019-05-11T06:22:07.164Z,98075.95
2019-05-11T06:24:36.347Z,98074.75
2019-05-11T06:27:07.339Z,98071.46
2019-05-11T06:29:36.131Z,98075.73
2019-05-11T06:32:05.084Z,98075.00
2019-05-11T06:34:34.022Z,98079.02
2019-05-11T06:37:05.328Z,98084.66
2019-05-11T06:39:34.238Z,98087.87
2019-05-11T06:42:02.986Z,98091.27
2019-05-11T06:44:31.684Z,98082.89
2019-05-11T06:47:00.439Z,98080.97
2019-05-11T06:49:29.369Z,98090.80
2019-05-11T06:51:58.061Z,98095.13
2019-05-11T06:54:27.012Z,98100.27
2019-05-11T06:56:55.733Z,98096.09
2019-05-11T06:59:27.584Z,98099.88
2019-05-11T07:01:56.555Z,98103.72
2019-05-11T07:04:25.251Z,98100.85
2019-05-11T07:06:54.475Z,98097.14
2019-05-11T07:09:23.678Z,98090.30
2019-05-11T07:11:52.625Z,98078.16
2019-05-11T07:14:21.740Z,98089.48
2019-05-11T07:16:50.506Z,98091.11
2019-05-11T07:19:19.419Z,98097.87
2019-05-11T07:21:48.610Z,98105.69
2019-05-11T07:24:17.363Z,98106.08
2019-05-11T07:26:46.305Z,98108.88
2019-05-11T07:29:16.657Z,98109.36
2019-05-11T07:31:45.835Z,98107.06
2019-05-11T07:34:14.524Z,98113.95
2019-05-11T07:36:43.258Z,98114.46
2019-05-11T07:39:11.948Z,98117.36
2019-05-11T07:41:40.665Z,98116.25
2019-05-11T07:44:10.171Z,98113.98
2019-05-11T07:46:39.166Z,98117.62
2019-05-11T07:49:11.130Z,98115.00
2019-05-11T07:51:39.846Z,98120.08
2019-05-11T07:54:08.679Z,98122.81
2019-05-11T07:56:38.992Z,98124.17
2019-05-11T07:59:08.136Z,98124.03
2019-05-11T08:01:38.664Z,98118.62
2019-05-11T08:04:07.928Z,98119.98
2019-05-11T08:06:38.931Z,98121.67
2019-05-11T08:09:08.384Z,98118.78
2019-05-11T08:11:38.923Z,98122.16
2019-05-11T08:14:07.941Z,98125.84
2019-05-11T08:16:39.072Z,98129.38
2019-05-11T08:19:10.625Z,98128.03
2019-05-11T08:21:38.871Z,98125.39
2019-05-11T08:24:09.133Z,98133.28
2019-05-11T08:26:38.665Z,98139.88
2019-05-11T08:29:08.220Z,98138.92
2019-05-11T08:31:38.412Z,98133.44
2019-05-11T08:34:08.838Z,98133.77
2019-05-11T08:36:38.054Z,98137.45
2019-05-11T08:39:08.038Z,98134.66
2019-05-11T08:41:38.499Z,98135.48
2019-05-11T08:44:08.954Z,98143.68
2019-05-11T08:46:38.537Z,98144.33
2019-05-11T08:49:08.616Z,98152.23
2019-05-11T08:51:38.646Z,98141.17
2019-05-11T08:54:09.016Z,98143.21
2019-05-11T08:56:38.386Z,98135.47
2019-05-11T08:59:08.117Z,98143.52
2019-05-11T09:01:39.280Z,98145.61
2019-05-11T09:04:08.965Z,98047.66
2019-05-11T09:06:37.886Z,98145.03
2019-05-11T09:09:08.939Z,98146.45
2019-05-11T09:11:38.914Z,98152.09
2019-05-11T09:14:08.491Z,98155.97
2019-05-11T09:16:38.470Z,98154.50
2019-05-11T09:19:08.735Z,98162.61
2019-05-11T09:21:38.424Z,98160.83
2019-05-11T09:24:08.448Z,98167.34
2019-05-11T09:26:38.816Z,98172.30
2019-05-11T09:29:08.697Z,98177.03
2019-05-11T09:31:38.187Z,98174.96
2019-05-11T09:34:08.967Z,98188.81
2019-05-11T09:36:38.867Z,98179.58
2019-05-11T09:39:08.761Z,98191.73
2019-05-11T09:41:38.335Z,98186.08
2019-05-11T09:44:08.996Z,98194.28
2019-05-11T09:46:38.420Z,98194.28
2019-05-11T09:49:08.157Z,98200.90
2019-05-11T09:51:38.117Z,98200.90
2019-05-11T09:54:07.928Z,98208.03
2019-05-11T09:56:38.146Z,98209.51
2019-05-11T09:59:08.843Z,98211.21
2019-05-11T10:01:37.992Z,98211.21
2019-05-11T10:04:09.016Z,98209.18
2019-05-11T10:06:38.954Z,98205.52
2019-05-11T10:09:08.279Z,98222.55
2019-05-11T10:11:39.702Z,98221.41
2019-05-11T10:14:08.364Z,98215.46
2019-05-11T10:16:38.702Z,98210.22
2019-05-11T10:19:08.451Z,98225.59
2019-05-11T10:21:38.442Z,98224.89
2019-05-11T10:24:08.603Z,98227.09
2019-05-11T10:26:38.478Z,98227.84
2019-05-11T10:29:07.977Z,98232.23
2019-05-11T10:31:38.591Z,98234.75
2019-05-11T10:34:08.651Z,98228.59
2019-05-11T10:36:41.418Z,98232.09
2019-05-11T10:39:10.591Z,98238.07
2019-05-11T10:41:39.549Z,98235.48
2019-05-11T10:44:08.440Z,98234.61
2019-05-11T10:46:38.098Z,98251.02
2019-05-11T10:49:08.044Z,98256.79
2019-05-11T10:51:38.542Z,98249.91
2019-05-11T10:54:08.885Z,98258.30
2019-05-11T10:56:38.884Z,98266.55
2019-05-11T10:59:08.099Z,98261.34
2019-05-11T11:01:38.103Z,98266.77
2019-05-11T11:04:09.037Z,98268.94
2019-05-11T11:06:38.627Z,98276.97
2019-05-11T11:09:09.135Z,98279.61
2019-05-11T11:11:38.432Z,98284.77
2019-05-11T11:14:08.758Z,98282.22
2019-05-11T11:16:42.437Z,98296.64
2019-05-11T11:19:08.346Z,98303.60
2019-05-11T11:21:38.357Z,98298.89
2019-05-11T11:24:07.732Z,98306.47
2019-05-11T11:26:37.981Z,98306.47
2019-05-11T11:29:08.568Z,98323.78
2019-05-11T11:31:38.145Z,98322.87
2019-05-11T11:34:08.225Z,98322.87
2019-05-11T11:36:37.665Z,98328.20
2019-05-11T11:39:08.348Z,98333.43
2019-05-11T11:41:37.990Z,98333.43
2019-05-11T11:44:07.855Z,98335.80
2019-05-11T11:46:50.960Z,98344.67
2019-05-11T11:49:08.328Z,98344.23
2019-05-11T11:51:37.857Z,98345.45
2019-05-11T11:54:08.791Z,98345.45
2019-05-11T11:56:38.107Z,98347.81
2019-05-11T11:59:08.553Z,98348.63
2019-05-11T12:01:38.402Z,98356.38
2019-05-11T12:04:08.259Z,98357.72
2019-05-11T12:06:38.604Z,98359.12
2019-05-11T12:09:08.982Z,98371.67
2019-05-11T12:11:38.293Z,98368.64
2019-05-11T12:14:08.703Z,98372.42
2019-05-11T12:16:38.882Z,98372.42
2019-05-11T12:19:08.592Z,98376.40
2019-05-11T12:21:37.947Z,98376.40
2019-05-11T12:24:08.187Z,98387.45
2019-05-11T12:26:38.859Z,98389.80
2019-05-11T12:29:08.263Z,98387.45
2019-05-11T12:31:38.047Z,98395.16
2019-05-11T12:34:08.812Z,98386.81
2019-05-11T12:36:38.747Z,98400.01
2019-05-11T12:39:08.568Z,98395.52
2019-05-11T12:41:38.720Z,98402.05
2019-05-11T12:44:08.376Z,98405.06
2019-05-11T12:46:39.541Z,98407.63
2019-05-11T12:49:08.675Z,98417.15
2019-05-11T12:51:38.364Z,98415.23
2019-05-11T12:54:08.244Z,98419.70
2019-05-11T12:56:38.289Z,98423.75
2019-05-11T12:59:08.279Z,98422.70
2019-05-11T13:01:38.119Z,98431.42
2019-05-11T13:04:09.074Z,98431.42
2019-05-11T13:06:38.502Z,98433.02
2019-05-11T13:09:08.378Z,98447.81
2019-05-11T13:11:37.994Z,98447.81
2019-05-11T13:14:08.012Z,98453.89
2019-05-11T13:16:37.997Z,98453.89
2019-05-11T13:19:08.335Z,98456.57
2019-05-11T13:21:38.215Z,98457.50
2019-05-11T13:24:08.350Z,98457.50
2019-05-11T13:26:38.220Z,98470.70
2019-05-11T13:29:07.814Z,98470.70
2019-05-11T13:31:38.382Z,98480.78
2019-05-11T13:34:08.369Z,98479.80
2019-05-11T13:36:38.343Z,98481.91
2019-05-11T13:39:08.950Z,98495.44
2019-05-11T13:41:40.639Z,98495.44
2019-05-11T13:44:09.320Z,98488.88
2019-05-11T13:46:38.835Z,98490.70
2019-05-11T13:49:08.542Z,98493.70
2019-05-11T13:51:38.830Z,98499.05
2019-05-11T13:54:08.134Z,98497.62
2019-05-11T13:56:37.936Z,98497.62
2019-05-11T13:59:10.814Z,98495.58
2019-05-11T14:01:40.051Z,98499.86
2019-05-11T14:04:08.789Z,98506.38
2019-05-11T14:06:37.897Z,98511.73
2019-05-11T14:09:08.670Z,98511.73
2019-05-11T14:11:39.023Z,98508.62
2019-05-11T14:14:08.246Z,98524.90
2019-05-11T14:16:37.937Z,98524.90
2019-05-11T14:19:08.613Z,98527.16
2019-05-11T14:21:38.483Z,98516.54
2019-05-11T14:24:07.968Z,98533.01
2019-05-11T14:26:38.576Z,98534.62
2019-05-11T14:29:08.456Z,98532.84
2019-05-11T14:31:38.737Z,98531.11
2019-05-11T14:34:08.828Z,98537.58
2019-05-11T14:36:38.718Z,98541.48
2019-05-11T14:39:08.652Z,98552.17
2019-05-11T14:41:38.323Z,98555.91
2019-05-11T14:44:08.801Z,98557.65
2019-05-11T14:46:38.432Z,98567.84
2019-05-11T14:49:07.964Z,98568.47
2019-05-11T14:51:39.163Z,98578.73
2019-05-11T14:54:08.382Z,98584.78
2019-05-11T14:56:38.223Z,98584.91
2019-05-11T14:59:09.064Z,98593.71
2019-05-11T15:01:38.381Z,98596.83
2019-05-11T15:04:09.107Z,98597.73
2019-05-11T15:06:38.652Z,98604.19
2019-05-11T15:09:08.533Z,98606.83
2019-05-11T15:11:38.822Z,98606.83
2019-05-11T15:14:08.281Z,98615.53
2019-05-11T15:16:38.395Z,98615.53
2019-05-11T15:19:08.006Z,98621.66
2019-05-11T15:21:38.721Z,98628.73
2019-05-11T15:24:09.060Z,98628.60
2019-05-11T15:26:38.315Z,98628.60
2019-05-11T15:29:08.206Z,98639.88
2019-05-11T15:31:38.036Z,98637.58
2019-05-11T15:34:08.476Z,98639.44
2019-05-11T15:36:38.683Z,98644.41
2019-05-11T15:39:08.081Z,98643.39
2019-05-11T15:41:38.878Z,98640.42
2019-05-11T15:44:11.404Z,98650.44
2019-05-11T15:46:39.034Z,98648.12
2019-05-11T15:49:08.792Z,98648.25
2019-05-11T15:51:41.045Z,98652.42
2019-05-11T15:54:08.494Z,98658.98
2019-05-11T15:56:38.488Z,98668.23
2019-05-11T15:59:08.616Z,98668.17
2019-05-11T16:01:40.941Z,98668.81
2019-05-11T16:04:09.154Z,98664.07
2019-05-11T16:06:40.210Z,98670.28
2019-05-11T16:09:09.252Z,98677.13
2019-05-11T16:11:38.784Z,98679.13
2019-05-11T16:14:08.812Z,98687.84
2019-05-11T16:16:39.000Z,98687.61
2019-05-11T16:19:13.977Z,98693.55
2019-05-11T16:21:38.628Z,98696.43
2019-05-11T16:24:09.516Z,98698.55
2019-05-11T16:26:38.472Z,98700.22
2019-05-11T16:29:08.535Z,98706.13
2019-05-11T16:31:39.257Z,98711.55
2019-05-11T16:34:08.214Z,98716.70
2019-05-11T16:36:38.884Z,98716.66
2019-05-11T16:39:10.523Z,98714.92
2019-05-11T16:41:39.576Z,98713.73
2019-05-11T16:44:08.548Z,98713.23
2019-05-11T16:46:38.970Z,98708.88
2019-05-11T16:49:09.467Z,98718.47
2019-05-11T16:51:39.003Z,98712.25
2019-05-11T16:54:07.901Z,98723.70
2019-05-11T16:56:38.335Z,98728.08
2019-05-11T16:59:08.280Z,98739.95
2019-05-11T17:01:38.047Z,98738.89
2019-05-11T17:04:06.940Z,98740.02
2019-05-11T17:06:38.311Z,98743.63
2019-05-11T17:09:08.956Z,98743.95
2019-05-11T17:11:38.431Z,98739.83
2019-05-11T17:14:08.299Z,98742.63
2019-05-11T17:16:38.512Z,98753.33
2019-05-11T17:19:08.090Z,98763.87
2019-05-11T17:21:38.026Z,98772.39
2019-05-11T17:24:07.123Z,98778.13
2019-05-11T17:26:38.356Z,98783.75
2019-05-11T17:29:06.470Z,98790.47
2019-05-11T17:31:37.860Z,98798.70
2019-05-11T17:34:08.771Z,98805.06
2019-05-11T17:36:36.852Z,98809.86
2019-05-11T17:39:07.729Z,98810.55
2019-05-11T17:41:38.648Z,98813.21
2019-05-11T17:44:08.181Z,98815.02
2019-05-11T17:46:38.408Z,98805.44
2019-05-11T17:49:08.043Z,98801.06
2019-05-11T17:51:37.938Z,98804.48
2019-05-11T17:54:08.025Z,98813.91
2019-05-11T17:56:38.807Z,98813.89
2019-05-11T17:59:08.223Z,98826.71
2019-05-11T18:01:37.149Z,98827.78
2019-05-11T18:04:08.060Z,98840.73
2019-05-11T18:06:38.449Z,98845.66
2019-05-11T18:09:08.383Z,98847.41
2019-05-11T18:11:38.162Z,98848.02
2019-05-11T18:14:08.431Z,98857.66
2019-05-11T18:16:37.420Z,98865.88
2019-05-11T18:19:08.480Z,98868.95
2019-05-11T18:21:38.671Z,98874.42
2019-05-11T18:24:09.130Z,98886.88
2019-05-11T18:26:38.439Z,98894.62
2019-05-11T18:29:07.310Z,98903.50
2019-05-11T18:31:38.383Z,98900.03
2019-05-11T18:34:08.844Z,98893.34
2019-05-11T18:36:38.234Z,98900.73
2019-05-11T18:39:08.347Z,98910.17
2019-05-11T18:41:39.150Z,98904.30
2019-05-11T18:44:11.073Z,98908.11
2019-05-11T18:46:40.113Z,98908.11
2019-05-11T18:49:08.795Z,98911.40
2019-05-11T18:51:38.029Z,98921.08
2019-05-11T18:54:09.128Z,98930.24
2019-05-11T18:56:38.289Z,98936.27
2019-05-11T18:59:08.873Z,98946.71
2019-05-11T19:01:38.145Z,98944.48
2019-05-11T19:04:07.851Z,98946.62
2019-05-11T19:06:37.834Z,98946.62
2019-05-11T19:09:09.513Z,98953.30
2019-05-11T19:11:38.581Z,98964.84
2019-05-11T19:14:08.754Z,98961.64
2019-05-11T19:16:39.033Z,98971.80
2019-05-11T19:19:08.360Z,98974.38
2019-05-11T19:21:37.143Z,98973.95
2019-05-11T19:24:09.050Z,98979.19
2019-05-11T19:26:36.459Z,98982.11
2019-05-11T19:29:05.371Z,98995.53
2019-05-11T19:31:34.335Z,98994.00
2019-05-11T19:34:03.290Z,99008.28
2019-05-11T19:36:31.970Z,99008.86
2019-05-11T19:39:00.730Z,99010.87
2019-05-11T19:41:29.704Z,99023.05
2019-05-11T19:43:58.423Z,99019.84
2019-05-11T19:46:28.074Z,99028.34
2019-05-11T19:48:58.013Z,99037.95
2019-05-11T19:51:29.124Z,99052.48
2019-05-11T19:53:57.665Z,99047.94
2019-05-11T19:56:28.752Z,99064.89
2019-05-11T19:58:57.944Z,99070.70
2019-05-11T20:01:27.872Z,99069.38
2019-05-11T20:03:57.185Z,99070.23
2019-05-11T20:06:28.080Z,99080.17
2019-05-11T20:08:58.085Z,99085.35
2019-05-11T20:11:27.915Z,99089.53
2019-05-11T20:13:58.789Z,99090.94
2019-05-11T20:16:27.438Z,99091.78
2019-05-11T20:18:57.840Z,99091.55
2019-05-11T20:21:28.810Z,99097.86
2019-05-11T20:23:57.870Z,99099.28
2019-05-11T20:26:28.552Z,99104.78
2019-05-11T20:28:58.781Z,99123.59
2019-05-11T20:31:27.817Z,99117.33
2019-05-11T20:33:56.540Z,99128.83
2019-05-11T20:36:25.212Z,99132.66
2019-05-11T20:38:54.162Z,99140.58
2019-05-11T20:41:22.872Z,99137.09
2019-05-11T20:43:51.878Z,99143.91
2019-05-11T20:46:20.657Z,99145.05
2019-05-11T20:48:49.613Z,99145.61
2019-05-11T20:51:32.837Z,99151.32
2019-05-11T20:53:49.008Z,99158.14
2019-05-11T20:56:17.988Z,99162.79
2019-05-11T20:58:59.833Z,99167.44
2019-05-11T21:01:29.071Z,99171.59
2019-05-11T21:03:58.659Z,99171.87
2019-05-11T21:06:29.397Z,99177.86
2019-05-11T21:08:58.604Z,99191.23
2019-05-11T21:11:27.390Z,99194.77
2019-05-11T21:13:56.339Z,99195.89
2019-05-11T21:16:25.031Z,99194.25
2019-05-11T21:18:54.231Z,99198.63
2019-05-11T21:21:23.167Z,99192.37
2019-05-11T21:23:52.119Z,99193.73
2019-05-11T21:26:21.124Z,99193.20
2019-05-11T21:28:49.820Z,99201.09
2019-05-11T21:31:18.841Z,99200.56
2019-05-11T21:33:48.026Z,99207.09
2019-05-11T21:36:18.050Z,99218.52
2019-05-11T21:38:52.657Z,99213.36
2019-05-11T21:41:21.420Z,99224.79
2019-05-11T21:43:50.744Z,99226.16
2019-05-11T21:46:19.548Z,99231.88
2019-05-11T21:48:48.293Z,99229.99
2019-05-11T21:51:18.167Z,99235.44
2019-05-11T21:53:48.719Z,99240.31
2019-05-11T21:56:18.750Z,99246.33
2019-05-11T21:58:47.618Z,99244.97
2019-05-11T22:01:20.082Z,99253.38
2019-05-11T22:03:47.929Z,99262.09
2019-05-11T22:06:20.150Z,99260.19
2019-05-11T22:08:50.856Z,99259.91
2019-05-11T22:11:19.591Z,99259.90
2019-05-11T22:13:50.078Z,99267.80
2019-05-11T22:16:18.826Z,99276.52
2019-05-11T22:18:48.502Z,99274.61
2019-05-11T22:21:18.781Z,99281.41
2019-05-11T22:23:50.597Z,99283.31
2019-05-11T22:26:18.140Z,99285.49
2019-05-11T22:28:48.199Z,99290.11
2019-05-11T22:31:18.201Z,99294.72
2019-05-11T22:33:48.058Z,99305.34
2019-05-11T22:36:17.331Z,99310.75
2019-05-11T22:38:48.132Z,99307.23
2019-05-11T22:41:18.093Z,99305.88
2019-05-11T22:43:48.588Z,99307.22
2019-05-11T22:46:17.809Z,99324.34
2019-05-11T22:48:48.895Z,99315.09
2019-05-11T22:51:18.372Z,99326.52
2019-05-11T22:53:50.202Z,99330.59
2019-05-11T22:56:19.935Z,99335.99
2019-05-11T22:58:50.012Z,99345.25
2019-05-11T23:01:18.690Z,99350.95
2019-05-11T23:03:47.945Z,99350.69
2019-05-11T23:06:18.127Z,99356.64
2019-05-11T23:08:48.311Z,99363.44
2019-05-11T23:11:18.023Z,99358.52
2019-05-11T23:13:47.893Z,99361.50
2019-05-11T23:16:18.026Z,99366.16
2019-05-11T23:18:48.117Z,99362.60
2019-05-11T23:21:16.906Z,99371.58
2019-05-11T23:23:47.855Z,99379.16
2019-05-11T23:26:17.806Z,99385.37
2019-05-11T23:28:48.715Z,99386.70
2019-05-11T23:31:17.892Z,99388.67
2019-05-11T23:33:46.823Z,99379.73
2019-05-11T23:36:15.512Z,99385.17
2019-05-11T23:38:44.191Z,99385.91
2019-05-11T23:41:24.063Z,99386.73
2019-05-11T23:43:43.811Z,99396.51
2019-05-11T23:46:12.755Z,99396.75
2019-05-11T23:48:41.451Z,99403.28
2019-05-11T23:51:10.453Z,99402.74
2019-05-11T23:53:39.398Z,99403.23
2019-05-11T23:56:08.406Z,99401.31
2019-05-11T23:58:39.084Z,99401.03
